sensor_id;sensor_type;location;lat;lon;timestamp;pressure;altitude;pressure_sealevel;temperature;humidity
8253;BME280;61313;48.396;10.008;2023-12-20T00:02:22;96252.09;;;6.36;59.29
8253;BME280;61313;48.396;10.008;2023-12-20T00:04:48;96253.03;;;6.33;59.58
8253;BME280;61313;48.396;10.008;2023-12-20T00:07:13;96242.75;;;6.29;60.18
8253;BME280;61313;48.396;10.008;2023-12-20T00:09:39;96240.91;;;6.61;58.79
8253;BME280;61313;48.396;10.008;2023-12-20T00:12:04;96241.56;;;6.39;59.63
8253;BME280;61313;48.396;10.008;2023-12-20T00:14:30;96247.88;;;6.30;59.63
8253;BME280;61313;48.396;10.008;2023-12-20T00:16:55;96245.13;;;6.36;59.28
8253;BME280;61313;48.396;10.008;2023-12-20T00:19:21;96239.75;;;6.41;58.92
8253;BME280;61313;48.396;10.008;2023-12-20T00:21:46;96233.75;;;6.39;59.00
8253;BME280;61313;48.396;10.008;2023-12-20T00:24:11;96238.84;;;6.42;59.32
8253;BME280;61313;48.396;10.008;2023-12-20T00:26:37;96231.94;;;6.41;59.26
8253;BME280;61313;48.396;10.008;2023-12-20T00:29:02;96227.34;;;6.49;59.37
8253;BME280;61313;48.396;10.008;2023-12-20T00:31:27;96228.09;;;6.25;59.75
8253;BME280;61313;48.396;10.008;2023-12-20T00:33:53;96227.84;;;6.32;59.46
8253;BME280;61313;48.396;10.008;2023-12-20T00:36:18;96231.22;;;6.36;59.21
8253;BME280;61313;48.396;10.008;2023-12-20T00:38:44;96228.63;;;6.36;59.25
8253;BME280;61313;48.396;10.008;2023-12-20T00:41:10;96223.06;;;6.47;58.80
8253;BME280;61313;48.396;10.008;2023-12-20T00:43:35;96217.19;;;6.40;59.80
8253;BME280;61313;48.396;10.008;2023-12-20T00:46:00;96212.34;;;6.28;60.22
8253;BME280;61313;48.396;10.008;2023-12-20T00:48:26;96211.19;;;6.38;59.88
8253;BME280;61313;48.396;10.008;2023-12-20T00:50:57;96195.72;;;6.32;60.41
8253;BME280;61313;48.396;10.008;2023-12-20T00:53:22;96200.13;;;6.30;60.48
8253;BME280;61313;48.396;10.008;2023-12-20T00:55:48;96193.16;;;6.30;60.41
8253;BME280;61313;48.396;10.008;2023-12-20T00:58:13;96197.25;;;6.39;59.89
8253;BME280;61313;48.396;10.008;2023-12-20T01:00:40;96180.13;;;6.30;60.53
8253;BME280;61313;48.396;10.008;2023-12-20T01:03:07;96171.03;;;6.44;60.05
8253;BME280;61313;48.396;10.008;2023-12-20T01:05:32;96175.84;;;6.29;60.49
8253;BME280;61313;48.396;10.008;2023-12-20T01:07:58;96165.50;;;6.26;61.40
8253;BME280;61313;48.396;10.008;2023-12-20T01:10:23;96170.66;;;6.28;61.05
8253;BME280;61313;48.396;10.008;2023-12-20T01:12:48;96169.78;;;6.29;60.80
8253;BME280;61313;48.396;10.008;2023-12-20T01:15:14;96168.06;;;6.28;61.38
8253;BME280;61313;48.396;10.008;2023-12-20T01:17:39;96162.16;;;6.49;60.93
8253;BME280;61313;48.396;10.008;2023-12-20T01:20:05;96159.84;;;6.40;61.04
8253;BME280;61313;48.396;10.008;2023-12-20T01:22:31;96156.69;;;6.30;61.41
8253;BME280;61313;48.396;10.008;2023-12-20T01:24:56;96151.44;;;6.32;61.87
8253;BME280;61313;48.396;10.008;2023-12-20T01:27:22;96150.59;;;6.31;61.68
8253;BME280;61313;48.396;10.008;2023-12-20T01:29:47;96150.47;;;6.34;61.75
8253;BME280;61313;48.396;10.008;2023-12-20T01:32:12;96155.41;;;6.44;61.34
8253;BME280;61313;48.396;10.008;2023-12-20T01:34:38;96161.75;;;6.35;61.55
8253;BME280;61313;48.396;10.008;2023-12-20T01:37:03;96167.16;;;6.29;61.97
8253;BME280;61313;48.396;10.008;2023-12-20T01:39:29;96158.44;;;6.30;62.18
8253;BME280;61313;48.396;10.008;2023-12-20T01:41:54;96162.41;;;6.13;62.79
8253;BME280;61313;48.396;10.008;2023-12-20T01:44:20;96176.50;;;6.36;62.19
8253;BME280;61313;48.396;10.008;2023-12-20T01:46:45;96182.75;;;6.30;62.04
8253;BME280;61313;48.396;10.008;2023-12-20T01:49:12;96183.88;;;6.22;62.82
8253;BME280;61313;48.396;10.008;2023-12-20T01:51:37;96162.91;;;6.26;62.86
8253;BME280;61313;48.396;10.008;2023-12-20T01:54:03;96169.00;;;6.25;63.15
8253;BME280;61313;48.396;10.008;2023-12-20T01:56:30;96177.03;;;5.88;64.82
8253;BME280;61313;48.396;10.008;2023-12-20T01:58:56;96175.63;;;6.07;64.08
8253;BME280;61313;48.396;10.008;2023-12-20T02:01:22;96173.81;;;6.09;64.27
8253;BME280;61313;48.396;10.008;2023-12-20T02:03:47;96170.91;;;6.20;63.75
8253;BME280;61313;48.396;10.008;2023-12-20T02:06:13;96170.16;;;6.17;64.46
8253;BME280;61313;48.396;10.008;2023-12-20T02:08:39;96164.13;;;6.14;64.92
8253;BME280;61313;48.396;10.008;2023-12-20T02:11:04;96170.75;;;6.25;65.25
8253;BME280;61313;48.396;10.008;2023-12-20T02:13:31;96167.38;;;6.21;65.31
8253;BME280;61313;48.396;10.008;2023-12-20T02:15:56;96173.47;;;6.22;65.90
8253;BME280;61313;48.396;10.008;2023-12-20T02:18:22;96171.09;;;6.42;65.69
8253;BME280;61313;48.396;10.008;2023-12-20T02:20:47;96159.84;;;6.40;66.21
8253;BME280;61313;48.396;10.008;2023-12-20T02:23:13;96164.47;;;6.32;66.93
8253;BME280;61313;48.396;10.008;2023-12-20T02:25:38;96165.16;;;6.37;67.27
8253;BME280;61313;48.396;10.008;2023-12-20T02:28:05;96158.34;;;6.33;67.07
8253;BME280;61313;48.396;10.008;2023-12-20T02:30:30;96154.47;;;6.18;68.07
8253;BME280;61313;48.396;10.008;2023-12-20T02:32:56;96160.78;;;6.09;68.96
8253;BME280;61313;48.396;10.008;2023-12-20T02:35:21;96164.28;;;6.10;69.54
8253;BME280;61313;48.396;10.008;2023-12-20T02:37:46;96154.56;;;6.15;69.93
8253;BME280;61313;48.396;10.008;2023-12-20T02:40:12;96161.38;;;6.19;69.67
8253;BME280;61313;48.396;10.008;2023-12-20T02:42:37;96171.81;;;6.19;69.96
8253;BME280;61313;48.396;10.008;2023-12-20T02:45:03;96166.75;;;6.14;70.32
8253;BME280;61313;48.396;10.008;2023-12-20T02:47:28;96169.22;;;6.19;70.43
8253;BME280;61313;48.396;10.008;2023-12-20T02:49:55;96160.38;;;6.23;70.17
8253;BME280;61313;48.396;10.008;2023-12-20T02:52:22;96167.56;;;6.17;71.01
8253;BME280;61313;48.396;10.008;2023-12-20T02:54:48;96167.44;;;6.20;71.47
8253;BME280;61313;48.396;10.008;2023-12-20T02:57:13;96170.78;;;6.23;71.46
8253;BME280;61313;48.396;10.008;2023-12-20T02:59:39;96172.84;;;6.13;71.92
8253;BME280;61313;48.396;10.008;2023-12-20T03:02:04;96175.63;;;6.07;72.22
8253;BME280;61313;48.396;10.008;2023-12-20T03:04:30;96176.28;;;5.84;73.86
8253;BME280;61313;48.396;10.008;2023-12-20T03:06:55;96172.22;;;6.05;73.06
8253;BME280;61313;48.396;10.008;2023-12-20T03:09:21;96159.47;;;5.96;73.46
8253;BME280;61313;48.396;10.008;2023-12-20T03:11:46;96164.31;;;6.08;73.33
8253;BME280;61313;48.396;10.008;2023-12-20T03:14:11;96161.00;;;6.03;73.58
8253;BME280;61313;48.396;10.008;2023-12-20T03:16:37;96159.81;;;6.13;72.59
8253;BME280;61313;48.396;10.008;2023-12-20T03:19:02;96159.78;;;6.15;73.32
8253;BME280;61313;48.396;10.008;2023-12-20T03:21:28;96167.72;;;6.10;73.82
8253;BME280;61313;48.396;10.008;2023-12-20T03:23:53;96167.81;;;6.07;74.15
8253;BME280;61313;48.396;10.008;2023-12-20T03:26:19;96174.75;;;6.07;74.12
8253;BME280;61313;48.396;10.008;2023-12-20T03:28:44;96169.25;;;6.18;74.07
8253;BME280;61313;48.396;10.008;2023-12-20T03:31:10;96172.13;;;6.08;74.59
8253;BME280;61313;48.396;10.008;2023-12-20T03:33:36;96168.09;;;5.98;74.98
8253;BME280;61313;48.396;10.008;2023-12-20T03:36:01;96164.56;;;5.99;75.11
8253;BME280;61313;48.396;10.008;2023-12-20T03:38:27;96178.41;;;6.01;75.36
8253;BME280;61313;48.396;10.008;2023-12-20T03:40:52;96172.09;;;6.10;74.82
8253;BME280;61313;48.396;10.008;2023-12-20T03:43:17;96169.41;;;6.11;74.49
8253;BME280;61313;48.396;10.008;2023-12-20T03:45:43;96162.16;;;6.21;74.10
8253;BME280;61313;48.396;10.008;2023-12-20T03:48:08;96170.75;;;6.25;74.41
8253;BME280;61313;48.396;10.008;2023-12-20T03:50:35;96169.13;;;6.21;74.43
8253;BME280;61313;48.396;10.008;2023-12-20T03:53:00;96157.25;;;6.40;73.15
8253;BME280;61313;48.396;10.008;2023-12-20T03:55:26;96167.63;;;6.13;74.49
8253;BME280;61313;48.396;10.008;2023-12-20T03:57:51;96168.47;;;6.14;74.57
8253;BME280;61313;48.396;10.008;2023-12-20T04:00:17;96165.09;;;6.12;74.63
8253;BME280;61313;48.396;10.008;2023-12-20T04:02:42;96179.00;;;6.11;75.18
8253;BME280;61313;48.396;10.008;2023-12-20T04:05:09;96169.34;;;6.14;75.36
8253;BME280;61313;48.396;10.008;2023-12-20T04:07:38;96175.53;;;6.10;75.49
8253;BME280;61313;48.396;10.008;2023-12-20T04:10:04;96174.56;;;6.14;75.31
8253;BME280;61313;48.396;10.008;2023-12-20T04:12:30;96177.44;;;6.05;75.67
8253;BME280;61313;48.396;10.008;2023-12-20T04:14:56;96169.50;;;6.08;75.75
8253;BME280;61313;48.396;10.008;2023-12-20T04:17:22;96167.72;;;6.10;75.68
8253;BME280;61313;48.396;10.008;2023-12-20T04:19:49;96173.88;;;6.08;76.24
8253;BME280;61313;48.396;10.008;2023-12-20T04:22:14;96179.25;;;6.02;76.15
8253;BME280;61313;48.396;10.008;2023-12-20T04:24:40;96186.00;;;6.09;76.12
8253;BME280;61313;48.396;10.008;2023-12-20T04:27:07;96181.72;;;6.06;76.18
8253;BME280;61313;48.396;10.008;2023-12-20T04:29:33;96183.44;;;6.07;76.48
8253;BME280;61313;48.396;10.008;2023-12-20T04:31:58;96190.25;;;6.11;76.20
8253;BME280;61313;48.396;10.008;2023-12-20T04:34:23;96195.47;;;6.11;76.29
8253;BME280;61313;48.396;10.008;2023-12-20T04:36:49;96195.66;;;6.05;76.49
8253;BME280;61313;48.396;10.008;2023-12-20T04:39:14;96186.22;;;6.01;76.69
8253;BME280;61313;48.396;10.008;2023-12-20T04:41:42;96194.59;;;6.12;76.26
8253;BME280;61313;48.396;10.008;2023-12-20T04:44:08;96197.25;;;6.09;76.51
8253;BME280;61313;48.396;10.008;2023-12-20T04:46:33;96204.34;;;6.04;76.60
8253;BME280;61313;48.396;10.008;2023-12-20T04:48:59;96207.41;;;6.19;76.10
8253;BME280;61313;48.396;10.008;2023-12-20T04:51:24;96204.34;;;6.04;76.86
8253;BME280;61313;48.396;10.008;2023-12-20T04:53:50;96201.75;;;6.04;76.89
8253;BME280;61313;48.396;10.008;2023-12-20T04:56:15;96204.28;;;6.07;77.09
8253;BME280;61313;48.396;10.008;2023-12-20T04:58:42;96206.97;;;6.04;76.92
8253;BME280;61313;48.396;10.008;2023-12-20T05:01:08;96207.53;;;6.14;76.59
8253;BME280;61313;48.396;10.008;2023-12-20T05:03:34;96213.44;;;6.21;76.40
8253;BME280;61313;48.396;10.008;2023-12-20T05:05:59;96206.84;;;6.09;77.07
8253;BME280;61313;48.396;10.008;2023-12-20T05:08:25;96214.38;;;6.18;76.17
8253;BME280;61313;48.396;10.008;2023-12-20T05:10:52;96203.06;;;6.19;76.56
8253;BME280;61313;48.396;10.008;2023-12-20T05:13:19;96201.63;;;6.09;77.06
8253;BME280;61313;48.396;10.008;2023-12-20T05:15:44;96197.19;;;6.12;76.74
8253;BME280;61313;48.396;10.008;2023-12-20T05:18:09;96208.50;;;6.11;76.85
8253;BME280;61313;48.396;10.008;2023-12-20T05:20:35;96212.00;;;6.10;77.12
8253;BME280;61313;48.396;10.008;2023-12-20T05:23:00;96218.78;;;6.16;77.30
8253;BME280;61313;48.396;10.008;2023-12-20T05:25:26;96229.41;;;6.10;77.73
8253;BME280;61313;48.396;10.008;2023-12-20T05:27:51;96231.13;;;6.09;77.43
8253;BME280;61313;48.396;10.008;2023-12-20T05:30:16;96232.03;;;6.08;78.17
8253;BME280;61313;48.396;10.008;2023-12-20T05:32:42;96240.69;;;6.09;77.98
8253;BME280;61313;48.396;10.008;2023-12-20T05:35:07;96240.66;;;6.10;77.95
8253;BME280;61313;48.396;10.008;2023-12-20T05:37:32;96238.88;;;6.12;77.88
8253;BME280;61313;48.396;10.008;2023-12-20T05:39:58;96245.72;;;6.17;77.78
8253;BME280;61313;48.396;10.008;2023-12-20T05:42:23;96255.13;;;6.21;77.37
8253;BME280;61313;48.396;10.008;2023-12-20T05:44:49;96269.78;;;6.25;77.24
8253;BME280;61313;48.396;10.008;2023-12-20T05:47:14;96270.72;;;6.22;77.75
8253;BME280;61313;48.396;10.008;2023-12-20T05:49:39;96269.94;;;6.19;77.57
8253;BME280;61313;48.396;10.008;2023-12-20T05:52:05;96258.50;;;6.24;77.52
8253;BME280;61313;48.396;10.008;2023-12-20T05:54:30;96248.94;;;6.25;77.32
8253;BME280;61313;48.396;10.008;2023-12-20T05:56:56;96258.66;;;6.20;77.52
8253;BME280;61313;48.396;10.008;2023-12-20T05:59:21;96260.31;;;6.22;77.58
8253;BME280;61313;48.396;10.008;2023-12-20T06:01:47;96261.88;;;6.28;77.14
8253;BME280;61313;48.396;10.008;2023-12-20T06:04:12;96268.00;;;6.27;77.25
8253;BME280;61313;48.396;10.008;2023-12-20T06:06:42;96273.56;;;6.14;78.15
8253;BME280;61313;48.396;10.008;2023-12-20T06:09:07;96282.84;;;6.23;77.54
8253;BME280;61313;48.396;10.008;2023-12-20T06:11:33;96285.50;;;6.22;77.88
8253;BME280;61313;48.396;10.008;2023-12-20T06:13:58;96286.31;;;6.24;77.52
8253;BME280;61313;48.396;10.008;2023-12-20T06:16:23;96292.06;;;6.35;77.66
8253;BME280;61313;48.396;10.008;2023-12-20T06:18:49;96301.06;;;6.25;78.45
8253;BME280;61313;48.396;10.008;2023-12-20T06:21:14;96296.47;;;6.33;78.02
8253;BME280;61313;48.396;10.008;2023-12-20T06:23:40;96304.47;;;6.27;78.28
8253;BME280;61313;48.396;10.008;2023-12-20T06:26:05;96303.69;;;6.23;78.16
8253;BME280;61313;48.396;10.008;2023-12-20T06:28:31;96305.75;;;6.43;78.00
8253;BME280;61313;48.396;10.008;2023-12-20T06:30:56;96309.47;;;6.34;77.97
8253;BME280;61313;48.396;10.008;2023-12-20T06:33:22;96307.81;;;6.30;77.85
8253;BME280;61313;48.396;10.008;2023-12-20T06:35:48;96316.72;;;6.23;78.82
8253;BME280;61313;48.396;10.008;2023-12-20T06:38:14;96309.69;;;6.27;78.64
8253;BME280;61313;48.396;10.008;2023-12-20T06:40:39;96309.03;;;6.19;78.92
8253;BME280;61313;48.396;10.008;2023-12-20T06:43:04;96310.53;;;6.27;78.91
8253;BME280;61313;48.396;10.008;2023-12-20T06:45:32;96320.09;;;6.27;79.18
8253;BME280;61313;48.396;10.008;2023-12-20T06:47:57;96321.91;;;6.25;78.82
8253;BME280;61313;48.396;10.008;2023-12-20T06:50:23;96326.06;;;6.30;79.10
8253;BME280;61313;48.396;10.008;2023-12-20T06:52:49;96325.34;;;6.25;78.60
8253;BME280;61313;48.396;10.008;2023-12-20T06:55:14;96320.84;;;6.30;78.47
8253;BME280;61313;48.396;10.008;2023-12-20T06:57:40;96320.00;;;6.30;78.91
8253;BME280;61313;48.396;10.008;2023-12-20T07:00:06;96327.69;;;6.34;78.83
8253;BME280;61313;48.396;10.008;2023-12-20T07:02:31;96322.09;;;6.48;77.93
8253;BME280;61313;48.396;10.008;2023-12-20T07:04:57;96319.16;;;6.29;78.91
8253;BME280;61313;48.396;10.008;2023-12-20T07:07:22;96328.81;;;6.26;79.05
8253;BME280;61313;48.396;10.008;2023-12-20T07:09:49;96326.25;;;6.24;78.99
8253;BME280;61313;48.396;10.008;2023-12-20T07:12:15;96331.38;;;6.27;79.29
8253;BME280;61313;48.396;10.008;2023-12-20T07:14:40;96339.78;;;6.37;78.14
8253;BME280;61313;48.396;10.008;2023-12-20T07:17:06;96341.81;;;6.27;79.19
8253;BME280;61313;48.396;10.008;2023-12-20T07:19:37;96352.31;;;6.24;79.43
8253;BME280;61313;48.396;10.008;2023-12-20T07:22:03;96348.78;;;6.27;79.54
8253;BME280;61313;48.396;10.008;2023-12-20T07:24:28;96351.28;;;6.30;79.18
8253;BME280;61313;48.396;10.008;2023-12-20T07:26:54;96352.94;;;6.32;78.99
8253;BME280;61313;48.396;10.008;2023-12-20T07:29:19;96356.59;;;6.27;79.56
8253;BME280;61313;48.396;10.008;2023-12-20T07:31:44;96365.25;;;6.27;79.20
8253;BME280;61313;48.396;10.008;2023-12-20T07:34:10;96355.75;;;6.26;79.05
8253;BME280;61313;48.396;10.008;2023-12-20T07:36:35;96366.91;;;6.30;79.17
8253;BME280;61313;48.396;10.008;2023-12-20T07:39:01;96371.28;;;6.29;78.96
8253;BME280;61313;48.396;10.008;2023-12-20T07:41:26;96373.91;;;6.28;79.02
8253;BME280;61313;48.396;10.008;2023-12-20T07:43:51;96369.31;;;6.38;79.02
8253;BME280;61313;48.396;10.008;2023-12-20T07:46:17;96368.56;;;6.34;78.74
8253;BME280;61313;48.396;10.008;2023-12-20T07:48:44;96378.88;;;6.37;78.71
8253;BME280;61313;48.396;10.008;2023-12-20T07:51:09;96377.81;;;6.44;78.24
8253;BME280;61313;48.396;10.008;2023-12-20T07:53:35;96389.31;;;6.37;78.28
8253;BME280;61313;48.396;10.008;2023-12-20T07:56:00;96382.09;;;6.47;77.34
8253;BME280;61313;48.396;10.008;2023-12-20T07:58:26;96382.16;;;6.45;77.56
8253;BME280;61313;48.396;10.008;2023-12-20T08:00:51;96382.41;;;6.36;77.76
8253;BME280;61313;48.396;10.008;2023-12-20T08:03:16;96378.59;;;6.48;77.29
8253;BME280;61313;48.396;10.008;2023-12-20T08:05:42;96384.94;;;6.38;78.09
8253;BME280;61313;48.396;10.008;2023-12-20T08:08:07;96387.63;;;6.36;78.53
8253;BME280;61313;48.396;10.008;2023-12-20T08:10:33;96393.53;;;6.43;77.76
8253;BME280;61313;48.396;10.008;2023-12-20T08:12:58;96377.25;;;6.33;78.26
8253;BME280;61313;48.396;10.008;2023-12-20T08:15:23;96384.78;;;6.44;78.27
8253;BME280;61313;48.396;10.008;2023-12-20T08:17:49;96386.06;;;6.60;77.68
8253;BME280;61313;48.396;10.008;2023-12-20T08:20:16;96383.31;;;8.29;92.10
8253;BME280;61313;48.396;10.008;2023-12-20T08:22:42;96378.69;;;9.31;80.91
8253;BME280;61313;48.396;10.008;2023-12-20T08:25:07;96381.56;;;9.47;74.00
8253;BME280;61313;48.396;10.008;2023-12-20T08:27:33;96375.09;;;9.56;69.03
8253;BME280;61313;48.396;10.008;2023-12-20T08:29:59;96394.13;;;7.93;72.36
8253;BME280;61313;48.396;10.008;2023-12-20T08:32:27;96396.44;;;7.21;74.90
8253;BME280;61313;48.396;10.008;2023-12-20T08:34:52;96387.63;;;6.97;75.73
8253;BME280;61313;48.396;10.008;2023-12-20T08:37:18;96389.16;;;6.73;76.93
8253;BME280;61313;48.396;10.008;2023-12-20T08:39:43;96388.53;;;6.65;77.25
8253;BME280;61313;48.396;10.008;2023-12-20T08:42:09;96392.19;;;6.59;77.79
8253;BME280;61313;48.396;10.008;2023-12-20T08:44:36;96396.22;;;6.71;77.55
8253;BME280;61313;48.396;10.008;2023-12-20T08:47:01;96406.53;;;6.74;77.14
8253;BME280;61313;48.396;10.008;2023-12-20T08:49:26;96411.56;;;6.80;77.89
8253;BME280;61313;48.396;10.008;2023-12-20T08:51:53;96409.16;;;6.74;77.68
8253;BME280;61313;48.396;10.008;2023-12-20T08:54:18;96400.47;;;6.73;77.62
8253;BME280;61313;48.396;10.008;2023-12-20T08:56:44;96405.56;;;6.78;77.36
8253;BME280;61313;48.396;10.008;2023-12-20T08:59:10;96402.31;;;6.70;77.79
8253;BME280;61313;48.396;10.008;2023-12-20T09:01:35;96395.97;;;6.78;77.61
8253;BME280;61313;48.396;10.008;2023-12-20T09:04:01;96388.09;;;6.80;76.73
8253;BME280;61313;48.396;10.008;2023-12-20T09:06:26;96378.41;;;6.85;76.77
8253;BME280;61313;48.396;10.008;2023-12-20T09:08:51;96384.19;;;6.95;76.22
8253;BME280;61313;48.396;10.008;2023-12-20T09:11:17;96381.91;;;7.40;75.36
8253;BME280;61313;48.396;10.008;2023-12-20T09:13:43;96385.00;;;7.80;72.68
8253;BME280;61313;48.396;10.008;2023-12-20T09:16:09;96378.72;;;7.59;74.10
8253;BME280;61313;48.396;10.008;2023-12-20T09:18:35;96383.13;;;7.83;73.57
8253;BME280;61313;48.396;10.008;2023-12-20T09:21:00;96383.50;;;7.98;73.14
8253;BME280;61313;48.396;10.008;2023-12-20T09:23:25;96382.06;;;9.11;69.00
8253;BME280;61313;48.396;10.008;2023-12-20T09:25:51;96380.50;;;9.29;67.73
8253;BME280;61313;48.396;10.008;2023-12-20T09:28:16;96386.25;;;8.70;68.97
8253;BME280;61313;48.396;10.008;2023-12-20T09:30:42;96387.59;;;8.32;71.21
8253;BME280;61313;48.396;10.008;2023-12-20T09:33:07;96388.81;;;7.96;72.57
8253;BME280;61313;48.396;10.008;2023-12-20T09:35:33;96388.34;;;7.83;73.29
8253;BME280;61313;48.396;10.008;2023-12-20T09:37:58;96389.84;;;7.66;73.64
8253;BME280;61313;48.396;10.008;2023-12-20T09:40:26;96380.53;;;7.57;73.80
8253;BME280;61313;48.396;10.008;2023-12-20T09:43:04;96389.25;;;7.56;74.22
8253;BME280;61313;48.396;10.008;2023-12-20T09:45:31;96391.09;;;7.54;73.72
8253;BME280;61313;48.396;10.008;2023-12-20T09:47:57;96383.94;;;7.59;74.61
8253;BME280;61313;48.396;10.008;2023-12-20T09:50:23;96384.84;;;7.84;73.85
8253;BME280;61313;48.396;10.008;2023-12-20T09:52:52;96384.44;;;7.97;72.91
8253;BME280;61313;48.396;10.008;2023-12-20T09:55:18;96387.59;;;8.06;72.67
8253;BME280;61313;48.396;10.008;2023-12-20T09:57:48;96372.63;;;8.10;72.63
8253;BME280;61313;48.396;10.008;2023-12-20T10:00:14;96377.34;;;8.25;72.61
8253;BME280;61313;48.396;10.008;2023-12-20T10:02:53;96373.97;;;8.22;72.86
8253;BME280;61313;48.396;10.008;2023-12-20T10:05:26;96370.09;;;8.09;72.94
8253;BME280;61313;48.396;10.008;2023-12-20T10:07:52;96368.69;;;8.23;73.88
8253;BME280;61313;48.396;10.008;2023-12-20T10:10:17;96364.06;;;8.32;72.98
8253;BME280;61313;48.396;10.008;2023-12-20T10:13:07;96365.75;;;8.07;72.14
8253;BME280;61313;48.396;10.008;2023-12-20T10:15:34;96363.00;;;8.12;69.75
8253;BME280;61313;48.396;10.008;2023-12-20T10:18:00;96363.19;;;8.31;68.55
8253;BME280;61313;48.396;10.008;2023-12-20T10:20:25;96370.69;;;8.42;67.39
8253;BME280;61313;48.396;10.008;2023-12-20T10:22:52;96362.06;;;8.40;66.72
8253;BME280;61313;48.396;10.008;2023-12-20T10:25:19;96363.19;;;8.31;66.68
8253;BME280;61313;48.396;10.008;2023-12-20T10:27:45;96357.41;;;8.23;67.28
8253;BME280;61313;48.396;10.008;2023-12-20T10:30:10;96359.25;;;8.19;66.88
8253;BME280;61313;48.396;10.008;2023-12-20T10:32:36;96361.25;;;8.13;66.87
8253;BME280;61313;48.396;10.008;2023-12-20T10:35:01;96359.81;;;8.04;66.89
8253;BME280;61313;48.396;10.008;2023-12-20T10:37:28;96361.41;;;8.08;67.45
8253;BME280;61313;48.396;10.008;2023-12-20T10:39:54;96357.19;;;8.04;67.89
8253;BME280;61313;48.396;10.008;2023-12-20T10:42:24;96362.38;;;8.05;67.52
8253;BME280;61313;48.396;10.008;2023-12-20T10:44:51;96370.88;;;7.85;68.98
8253;BME280;61313;48.396;10.008;2023-12-20T10:47:19;96371.69;;;7.88;68.08
8253;BME280;61313;48.396;10.008;2023-12-20T10:49:45;96378.88;;;7.81;67.79
8253;BME280;61313;48.396;10.008;2023-12-20T10:52:11;96380.16;;;7.68;65.47
8253;BME280;61313;48.396;10.008;2023-12-20T10:54:38;96381.81;;;7.43;66.03
8253;BME280;61313;48.396;10.008;2023-12-20T10:57:05;96379.69;;;7.56;64.87
8253;BME280;61313;48.396;10.008;2023-12-20T10:59:33;96376.31;;;7.53;63.88
8253;BME280;61313;48.396;10.008;2023-12-20T11:01:59;96373.78;;;7.50;64.61
8253;BME280;61313;48.396;10.008;2023-12-20T11:04:46;96378.63;;;7.34;65.23
8253;BME280;61313;48.396;10.008;2023-12-20T11:07:21;96378.81;;;7.56;63.74
8253;BME280;61313;48.396;10.008;2023-12-20T11:10:00;96389.44;;;7.51;62.98
8253;BME280;61313;48.396;10.008;2023-12-20T11:12:39;96373.09;;;7.45;64.41
8253;BME280;61313;48.396;10.008;2023-12-20T11:15:07;96361.53;;;7.52;62.88
8253;BME280;61313;48.396;10.008;2023-12-20T11:17:33;96363.34;;;7.76;62.83
8253;BME280;61313;48.396;10.008;2023-12-20T11:22:28;96363.91;;;8.36;60.74
8253;BME280;61313;48.396;10.008;2023-12-20T11:24:58;96356.34;;;8.77;58.53
8253;BME280;61313;48.396;10.008;2023-12-20T11:27:24;96356.84;;;9.09;57.32
8253;BME280;61313;48.396;10.008;2023-12-20T11:29:53;96357.59;;;8.90;56.86
8253;BME280;61313;48.396;10.008;2023-12-20T11:34:55;96353.56;;;9.26;57.06
8253;BME280;61313;48.396;10.008;2023-12-20T11:37:21;96343.44;;;9.40;55.73
8253;BME280;61313;48.396;10.008;2023-12-20T11:40:00;96353.03;;;9.40;54.32
8253;BME280;61313;48.396;10.008;2023-12-20T11:42:27;96349.50;;;9.19;55.08
8253;BME280;61313;48.396;10.008;2023-12-20T11:44:53;96329.91;;;9.29;55.08
8253;BME280;61313;48.396;10.008;2023-12-20T11:47:18;96344.75;;;9.06;55.21
8253;BME280;61313;48.396;10.008;2023-12-20T11:49:47;96346.94;;;8.72;55.91
8253;BME280;61313;48.396;10.008;2023-12-20T11:52:13;96350.00;;;8.83;55.50
8253;BME280;61313;48.396;10.008;2023-12-20T11:54:39;96349.50;;;8.50;55.66
8253;BME280;61313;48.396;10.008;2023-12-20T11:57:04;96346.53;;;8.34;57.08
8253;BME280;61313;48.396;10.008;2023-12-20T11:59:31;96344.59;;;8.64;57.06
8253;BME280;61313;48.396;10.008;2023-12-20T12:01:56;96349.75;;;8.67;55.05
8253;BME280;61313;48.396;10.008;2023-12-20T12:04:26;96349.34;;;8.54;55.21
8253;BME280;61313;48.396;10.008;2023-12-20T12:06:51;96350.13;;;8.56;55.66
8253;BME280;61313;48.396;10.008;2023-12-20T12:09:17;96352.69;;;8.81;56.19
8253;BME280;61313;48.396;10.008;2023-12-20T12:11:42;96341.59;;;8.75;56.39
8253;BME280;61313;48.396;10.008;2023-12-20T12:14:08;96335.44;;;8.99;55.81
8253;BME280;61313;48.396;10.008;2023-12-20T12:16:33;96343.97;;;9.26;54.72
8253;BME280;61313;48.396;10.008;2023-12-20T12:18:59;96335.19;;;9.27;53.56
8253;BME280;61313;48.396;10.008;2023-12-20T12:21:25;96333.91;;;8.94;54.20
8253;BME280;61313;48.396;10.008;2023-12-20T12:23:51;96336.59;;;8.68;54.83
8253;BME280;61313;48.396;10.008;2023-12-20T12:26:16;96332.53;;;8.36;54.67
8253;BME280;61313;48.396;10.008;2023-12-20T12:28:42;96336.66;;;8.18;54.85
8253;BME280;61313;48.396;10.008;2023-12-20T12:31:08;96330.81;;;8.10;54.31
8253;BME280;61313;48.396;10.008;2023-12-20T12:33:34;96333.53;;;8.32;53.76
8253;BME280;61313;48.396;10.008;2023-12-20T12:36:03;96332.16;;;8.47;53.32
8253;BME280;61313;48.396;10.008;2023-12-20T12:38:30;96321.53;;;8.26;55.37
8253;BME280;61313;48.396;10.008;2023-12-20T12:40:56;96335.63;;;8.22;54.64
8253;BME280;61313;48.396;10.008;2023-12-20T12:43:22;96324.25;;;8.48;52.69
8253;BME280;61313;48.396;10.008;2023-12-20T12:45:48;96333.09;;;8.69;73.10
8253;BME280;61313;48.396;10.008;2023-12-20T12:48:14;96320.16;;;9.54;57.15
8253;BME280;61313;48.396;10.008;2023-12-20T12:50:39;96316.31;;;8.97;52.93
8253;BME280;61313;48.396;10.008;2023-12-20T12:53:05;96323.81;;;8.36;53.96
8253;BME280;61313;48.396;10.008;2023-12-20T12:55:30;96321.47;;;8.28;54.82
8253;BME280;61313;48.396;10.008;2023-12-20T12:57:55;96317.44;;;8.44;54.33
8253;BME280;61313;48.396;10.008;2023-12-20T13:00:21;96330.09;;;8.32;54.04
8253;BME280;61313;48.396;10.008;2023-12-20T13:02:47;96326.22;;;8.17;54.45
8253;BME280;61313;48.396;10.008;2023-12-20T13:05:12;96324.66;;;8.13;53.80
8253;BME280;61313;48.396;10.008;2023-12-20T13:07:38;96339.94;;;8.23;52.73
8253;BME280;61313;48.396;10.008;2023-12-20T13:10:05;96335.88;;;8.15;53.78